KLOT/LOT METAR and TAF weather

Enter ICAO airport designator
Station Type Date Time Source
KLOT METAR 2019/02/16 07:35 UTC NOAA

KLOT 160735Z AUTO 32005KT 10SM OVC019 M09/M12 A3010 RMK AO2 T10951119


Station Type Date Time Source
KLOT Decoded METAR 2019/02/16 07:35 UTC NOAA

Chicago/Romeoville, Lewis University Airport, IL, United States (KLOT) 41-36-30N 088-05-39W
Feb 16, 2019 - 02:35 AM EST / 2019.02.16 0735 UTC
Wind: from the NW (320 degrees) at 6 MPH (5 KT):0
Visibility: 10 mile(s):0
Sky conditions: overcast
Temperature: 14.9 F (-9.5 C)
Windchill: 5 F (-15 C):1
Dew Point: 10.6 F (-11.9 C)
Relative Humidity: 82%
Pressure (altimeter): 30.1 in. Hg (1019 hPa)
ob: KLOT 160735Z AUTO 32005KT 10SM OVC019 M09/M12 A3010 RMK AO2 T10951119
cycle: 7

Station Type Date Time Source
KLOT TAF UTC NOAA

Error!


Example: see airport list